Time;durP1;ratioP1;P1;durP2;ratioP2;P2;SDS_P1;SDS_P2;PMS_P1;PMS_P2;Temp;Humidity;BMP_temperature;BMP_pressure;BME280_temperature;BME280_humidity;BME280_pressure;Samples;Min_cycle;Max_cycle;Signal;HPM_P1;HPM_P2
2023/05/15 04:32:29;;;;;;;;;;;14.70;71.80;;;;;;4912678;29;19986;-88
2023/05/15 04:34:55;;;;;;;;;;;14.70;72.00;;;;;;4917956;29;19915;-88
2023/05/15 04:37:20;;;;;;;;;;;14.70;71.80;;;;;;4918287;29;19907;-85
2023/05/15 04:39:46;;;;;;;;;;;14.70;71.90;;;;;;4919619;29;20434;-88
2023/05/15 04:42:12;;;;;;;;;;;14.70;71.80;;;;;;4918520;29;19914;-86
2023/05/15 04:44:37;;;;;;;;;;;14.70;71.90;;;;;;4917089;29;20673;-88
2023/05/15 04:47:05;;;;;;;;;;;14.70;72.00;;;;;;4898522;29;19911;-86
2023/05/15 04:49:40;;;;;;;;;;;14.60;72.10;;;;;;4921027;29;19915;-89
2023/05/15 04:52:05;;;;;;;;;;;14.60;72.10;;;;;;4922829;29;19911;-81
2023/05/15 04:54:31;;;;;;;;;;;14.60;71.80;;;;;;4922676;29;19917;-81
2023/05/15 04:56:56;;;;;;;;;;;14.60;71.80;;;;;;4919175;29;20416;-90
2023/05/15 04:59:23;;;;;;;;;;;14.70;72.00;;;;;;4900344;29;19938;-90
2023/05/15 05:01:50;;;;;;;;;;;14.70;72.00;;;;;;4920176;29;19922;-90
2023/05/15 05:04:18;;;;;;;;;;;14.60;72.00;;;;;;4917620;29;20032;-89
2023/05/15 05:06:46;;;;;;;;;;;14.70;72.40;;;;;;4917989;29;19966;-87
2023/05/15 05:09:12;;;;;;;;;;;14.70;72.30;;;;;;4922501;29;19911;-89
2023/05/15 05:11:38;;;;;;;;;;;14.70;72.20;;;;;;4903609;29;19914;-91
2023/05/15 05:14:03;;;;;;;;;;;14.80;72.00;;;;;;4905406;29;19919;-88
2023/05/15 05:16:29;;;;;;;;;;;14.80;72.00;;;;;;4922609;29;19911;-89
2023/05/15 05:18:55;;;;;;;;;;;14.80;72.00;;;;;;4905984;29;19907;-88
2023/05/15 05:21:20;;;;;;;;;;;14.80;71.90;;;;;;4921487;29;19915;-90
2023/05/15 05:23:46;;;;;;;;;;;14.80;71.60;;;;;;4923400;29;19913;-89
2023/05/15 05:26:11;;;;;;;;;;;14.90;71.80;;;;;;4906230;29;19911;-90
2023/05/15 05:28:37;;;;;;;;;;;14.80;71.80;;;;;;4905204;29;20358;-89
2023/05/15 05:31:02;;;;;;;;;;;14.90;71.90;;;;;;4905593;29;19922;-89
2023/05/15 05:33:28;;;;;;;;;;;14.90;71.70;;;;;;4906036;29;20381;-89
2023/05/15 05:35:54;;;;;;;;;;;14.90;71.40;;;;;;4921016;29;19917;-90
2023/05/15 05:38:20;;;;;;;;;;;14.90;71.60;;;;;;4908287;29;19975;-93
2023/05/15 05:40:45;;;;;;;;;;;14.90;71.80;;;;;;4906918;29;19907;-89
2023/05/15 05:43:11;;;;;;;;;;;14.90;72.00;;;;;;4908132;29;20445;-93
2023/05/15 05:45:36;;;;;;;;;;;14.90;72.20;;;;;;4907618;29;20362;-93
2023/05/15 05:48:02;;;;;;;;;;;14.90;72.60;;;;;;4907580;29;20085;-93
2023/05/15 05:50:27;;;;;;;;;;;15.00;72.10;;;;;;4906009;29;19936;-88
2023/05/15 05:52:53;;;;;;;;;;;14.90;72.50;;;;;;4923279;29;19939;-92
2023/05/15 05:55:18;;;;;;;;;;;14.90;72.60;;;;;;4907663;29;20022;-91
2023/05/15 05:57:44;;;;;;;;;;;14.90;72.30;;;;;;4899226;29;21117;-91
2023/05/15 06:00:10;;;;;;;;;;;14.90;72.60;;;;;;4928770;29;19918;-90
2023/05/15 06:02:38;;;;;;;;;;;15.00;72.40;;;;;;4908809;29;19918;-90
2023/05/15 06:05:05;;;;;;;;;;;15.00;72.30;;;;;;4920598;29;19911;-88
2023/05/15 06:07:31;;;;;;;;;;;15.00;72.40;;;;;;4921082;29;19936;-89
2023/05/15 06:09:56;;;;;;;;;;;15.00;72.10;;;;;;4904719;29;19911;-89
2023/05/15 06:12:22;;;;;;;;;;;15.00;72.70;;;;;;4921838;29;19972;-89
2023/05/15 06:14:47;;;;;;;;;;;15.10;72.30;;;;;;4922505;29;19959;-88
2023/05/15 06:17:13;;;;;;;;;;;15.10;72.40;;;;;;4921939;29;19946;-90
2023/05/15 06:19:38;;;;;;;;;;;15.10;72.20;;;;;;4921738;29;19914;-88
2023/05/15 06:22:04;;;;;;;;;;;15.10;72.70;;;;;;4921988;29;19915;-89
2023/05/15 06:24:30;;;;;;;;;;;15.10;72.80;;;;;;4921107;29;20659;-88
2023/05/15 06:26:56;;;;;;;;;;;15.00;72.70;;;;;;4920770;29;19915;-89
2023/05/15 06:29:21;;;;;;;;;;;15.00;73.50;;;;;;4922077;29;20371;-88
2023/05/15 06:31:47;;;;;;;;;;;15.10;73.30;;;;;;4904623;29;19930;-88
2023/05/15 06:34:12;;;;;;;;;;;15.00;73.20;;;;;;4905434;29;19911;-88
2023/05/15 06:36:38;;;;;;;;;;;15.10;73.60;;;;;;4905066;29;19927;-89
2023/05/15 06:39:04;;;;;;;;;;;15.10;73.50;;;;;;4922250;29;19915;-88
2023/05/15 06:41:30;;;;;;;;;;;15.10;74.00;;;;;;4921030;29;19914;-89
2023/05/15 06:43:56;;;;;;;;;;;15.10;73.20;;;;;;4920700;29;19915;-90
2023/05/15 06:46:21;;;;;;;;;;;15.20;72.80;;;;;;4918490;29;19913;-89
2023/05/15 06:48:47;;;;;;;;;;;15.30;73.00;;;;;;4903494;29;20386;-88
2023/05/15 06:51:12;;;;;;;;;;;15.30;72.40;;;;;;4920905;29;19930;-90
2023/05/15 06:53:39;;;;;;;;;;;15.40;73.00;;;;;;4904709;29;19948;-91
2023/05/15 06:56:05;;;;;;;;;;;15.40;72.90;;;;;;4921733;29;19982;-90
2023/05/15 06:58:30;;;;;;;;;;;15.50;73.20;;;;;;4916550;29;20481;-88
2023/05/15 07:00:56;;;;;;;;;;;15.60;72.40;;;;;;4901745;29;19911;-89
2023/05/15 07:03:21;;;;;;;;;;;15.60;73.10;;;;;;4919442;29;19962;-89
2023/05/15 07:05:47;;;;;;;;;;;15.70;72.60;;;;;;4921152;29;20373;-89
2023/05/15 07:08:12;;;;;;;;;;;15.70;73.00;;;;;;4920795;29;19922;-89
2023/05/15 07:10:38;;;;;;;;;;;15.80;72.80;;;;;;4903463;29;19918;-90
2023/05/15 07:13:04;;;;;;;;;;;15.90;72.00;;;;;;4921433;29;19939;-88
2023/05/15 07:15:29;;;;;;;;;;;15.90;72.30;;;;;;4921312;29;19914;-90
2023/05/15 07:17:55;;;;;;;;;;;15.90;72.40;;;;;;4921292;29;19930;-89
2023/05/15 07:20:21;;;;;;;;;;;15.90;71.90;;;;;;4904495;29;20327;-90
2023/05/15 07:22:46;;;;;;;;;;;16.10;71.90;;;;;;4905269;29;19913;-91
2023/05/15 07:25:12;;;;;;;;;;;16.10;71.40;;;;;;4934521;29;19918;-91
2023/05/15 07:27:37;;;;;;;;;;;16.10;71.90;;;;;;4921090;29;19914;-90
2023/05/15 07:30:03;;;;;;;;;;;16.10;72.90;;;;;;4904165;29;19915;-90
2023/05/15 07:32:29;;;;;;;;;;;16.10;72.50;;;;;;4920964;29;19923;-88
2023/05/15 07:34:55;;;;;;;;;;;16.20;73.10;;;;;;4903972;29;19974;-90
2023/05/15 07:37:21;;;;;;;;;;;16.20;72.30;;;;;;4920922;29;19911;-88
2023/05/15 07:39:47;;;;;;;;;;;16.20;72.60;;;;;;4903427;29;20362;-89
2023/05/15 07:42:13;;;;;;;;;;;16.20;71.80;;;;;;4917670;29;19933;-90
2023/05/15 07:44:38;;;;;;;;;;;16.30;72.30;;;;;;4920664;29;19911;-89
2023/05/15 07:47:04;;;;;;;;;;;16.30;72.70;;;;;;4919923;29;20416;-88
2023/05/15 07:49:30;;;;;;;;;;;16.30;72.00;;;;;;4903442;29;20357;-89
2023/05/15 07:51:55;;;;;;;;;;;16.30;72.30;;;;;;4918949;29;19918;-89
2023/05/15 07:54:21;;;;;;;;;;;16.30;72.70;;;;;;4919037;29;19915;-88
2023/05/15 07:56:46;;;;;;;;;;;16.30;72.60;;;;;;4919148;29;19906;-89
2023/05/15 07:59:12;;;;;;;;;;;16.30;73.60;;;;;;4920290;29;19907;-90
2023/05/15 08:01:38;;;;;;;;;;;16.40;72.80;;;;;;4910178;29;19915;-89
2023/05/15 08:04:05;;;;;;;;;;;16.40;72.70;;;;;;4903079;29;20381;-89
2023/05/15 08:06:31;;;;;;;;;;;16.40;73.50;;;;;;4918926;29;19982;-89
2023/05/15 08:08:57;;;;;;;;;;;16.50;72.60;;;;;;4902898;29;19978;-89
2023/05/15 08:11:22;;;;;;;;;;;16.50;72.40;;;;;;4891773;29;19985;-89
2023/05/15 08:13:48;;;;;;;;;;;16.50;72.50;;;;;;4900774;29;19918;-90
2023/05/15 08:16:13;;;;;;;;;;;16.60;73.00;;;;;;4903164;29;19926;-90
2023/05/15 08:18:39;;;;;;;;;;;16.70;72.70;;;;;;4903360;29;19969;-90
2023/05/15 08:21:05;;;;;;;;;;;16.70;73.10;;;;;;4903195;29;20507;-90
2023/05/15 08:23:30;;;;;;;;;;;16.80;72.70;;;;;;4907893;29;19907;-91
2023/05/15 08:25:56;;;;;;;;;;;16.80;73.30;;;;;;4919737;29;19919;-89
2023/05/15 08:28:21;;;;;;;;;;;16.80;74.00;;;;;;4904038;29;19993;-89
2023/05/15 08:30:47;;;;;;;;;;;16.80;73.80;;;;;;4906913;29;20006;-91
2023/05/15 08:33:13;;;;;;;;;;;16.80;73.50;;;;;;4908017;29;19907;-91
2023/05/15 08:35:38;;;;;;;;;;;16.80;73.10;;;;;;4907605;29;20285;-91
2023/05/15 08:38:04;;;;;;;;;;;16.80;73.40;;;;;;4905918;29;19969;-90
2023/05/15 08:40:29;;;;;;;;;;;16.80;72.90;;;;;;4907206;29;19961;-89
2023/05/15 08:42:58;;;;;;;;;;;16.80;72.60;;;;;;4907226;29;19907;-91
2023/05/15 08:45:24;;;;;;;;;;;16.80;72.40;;;;;;4924016;29;19907;-90
2023/05/15 08:47:50;;;;;;;;;;;16.90;72.80;;;;;;4923571;29;19907;-89
2023/05/15 08:50:16;;;;;;;;;;;16.90;72.70;;;;;;4919898;29;19911;-89
2023/05/15 08:52:42;;;;;;;;;;;16.90;72.50;;;;;;4907248;29;19918;-91
2023/05/15 08:55:11;;;;;;;;;;;16.90;72.30;;;;;;4923659;29;19919;-89
2023/05/15 08:57:37;;;;;;;;;;;16.90;72.50;;;;;;4906789;29;19967;-89
2023/05/15 09:00:10;;;;;;;;;;;16.80;72.70;;;;;;4906766;29;19907;-91
2023/05/15 09:02:37;;;;;;;;;;;16.80;72.60;;;;;;4914294;29;19911;-90
2023/05/15 09:05:03;;;;;;;;;;;16.80;72.80;;;;;;4922871;29;20445;-90
2023/05/15 09:07:32;;;;;;;;;;;16.80;73.50;;;;;;4922463;29;20467;-89
2023/05/15 09:09:58;;;;;;;;;;;16.80;73.00;;;;;;4923239;29;19907;-89
2023/05/15 09:12:24;;;;;;;;;;;16.80;73.20;;;;;;4918973;29;20006;-90
2023/05/15 09:14:50;;;;;;;;;;;16.90;73.30;;;;;;4903943;29;19911;-91
2023/05/15 09:17:16;;;;;;;;;;;17.10;73.50;;;;;;4906315;29;19908;-91
2023/05/15 09:19:42;;;;;;;;;;;17.10;73.10;;;;;;4904544;29;19987;-90
2023/05/15 09:22:21;;;;;;;;;;;17.20;73.20;;;;;;4906192;29;19914;-89
2023/05/15 09:24:47;;;;;;;;;;;17.20;73.20;;;;;;4922728;29;19907;-89
2023/05/15 09:27:13;;;;;;;;;;;17.20;73.50;;;;;;4918400;29;19918;-89
2023/05/15 09:29:42;;;;;;;;;;;17.20;73.40;;;;;;4887900;29;19911;-89
2023/05/15 09:32:08;;;;;;;;;;;17.20;73.40;;;;;;4921346;29;20005;-89
2023/05/15 09:34:35;;;;;;;;;;;17.30;73.80;;;;;;4896217;29;20314;-89
2023/05/15 09:37:01;;;;;;;;;;;17.30;73.30;;;;;;4903412;29;19962;-89
2023/05/15 09:39:27;;;;;;;;;;;17.50;72.70;;;;;;4921280;29;19910;-91
2023/05/15 09:41:53;;;;;;;;;;;17.60;72.00;;;;;;4922077;29;19966;-90
2023/05/15 09:44:23;;;;;;;;;;;17.60;72.20;;;;;;4922042;29;19907;-88
2023/05/15 09:46:49;;;;;;;;;;;17.40;73.20;;;;;;4905997;29;20016;-92
2023/05/15 09:49:15;;;;;;;;;;;17.30;72.80;;;;;;4907097;29;19911;-92
2023/05/15 09:51:42;;;;;;;;;;;17.30;73.20;;;;;;4907254;29;20366;-92
2023/05/15 09:54:13;;;;;;;;;;;17.30;73.10;;;;;;4924157;29;19915;-93
2023/05/15 09:56:39;;;;;;;;;;;17.50;72.80;;;;;;4907499;29;20315;-94
2023/05/15 09:59:05;;;;;;;;;;;17.60;72.30;;;;;;4904149;29;19915;-94
2023/05/15 10:01:30;;;;;;;;;;;17.60;72.10;;;;;;4903291;29;19998;-95
2023/05/15 10:04:00;;;;;;;;;;;17.60;72.30;;;;;;4889189;29;20684;-93
2023/05/15 10:06:25;;;;;;;;;;;17.50;72.80;;;;;;4903561;29;20422;-92
2023/05/15 10:08:52;;;;;;;;;;;17.60;72.30;;;;;;4908115;29;19907;-92
2023/05/15 10:11:18;;;;;;;;;;;17.70;72.50;;;;;;4907202;29;19983;-91
2023/05/15 10:13:44;;;;;;;;;;;17.90;71.80;;;;;;4907039;29;20002;-93
2023/05/15 10:16:10;;;;;;;;;;;18.10;71.80;;;;;;4903873;29;19908;-93
2023/05/15 10:18:37;;;;;;;;;;;18.10;72.80;;;;;;4906824;29;19907;-90
2023/05/15 10:21:03;;;;;;;;;;;18.00;71.60;;;;;;4905950;29;19911;-90
2023/05/15 10:23:29;;;;;;;;;;;17.90;72.90;;;;;;4906778;29;19914;-94
2023/05/15 10:26:03;;;;;;;;;;;17.70;72.80;;;;;;4923457;29;19907;-93
2023/05/15 10:28:29;;;;;;;;;;;17.60;73.00;;;;;;4918932;29;20373;-90
2023/05/15 10:30:54;;;;;;;;;;;17.40;73.60;;;;;;4906610;29;19932;-92
2023/05/15 10:33:20;;;;;;;;;;;17.30;74.40;;;;;;4921737;29;20441;-92
2023/05/15 10:35:47;;;;;;;;;;;17.20;74.60;;;;;;4905685;29;20382;-92
2023/05/15 10:38:13;;;;;;;;;;;17.10;74.80;;;;;;4922325;29;19907;-92
2023/05/15 10:40:39;;;;;;;;;;;17.00;75.20;;;;;;4921725;29;19911;-92
2023/05/15 10:43:05;;;;;;;;;;;17.00;75.20;;;;;;4922538;29;19911;-93
2023/05/15 10:45:32;;;;;;;;;;;17.10;75.40;;;;;;4923556;29;20006;-91
2023/05/15 10:47:58;;;;;;;;;;;17.20;75.10;;;;;;4910115;29;19907;-93
2023/05/15 10:50:23;;;;;;;;;;;17.20;75.30;;;;;;4921292;29;19967;-90
2023/05/15 10:52:49;;;;;;;;;;;17.30;75.00;;;;;;4920774;29;19910;-88
2023/05/15 10:55:15;;;;;;;;;;;17.30;75.20;;;;;;4918218;29;19915;-86
2023/05/15 10:57:41;;;;;;;;;;;17.30;75.00;;;;;;4902816;29;19939;-86
2023/05/15 11:00:22;;;;;;;;;;;17.30;74.90;;;;;;4914742;29;19911;-88
2023/05/15 11:02:49;;;;;;;;;;;17.20;75.00;;;;;;4903721;29;19911;-82
2023/05/15 11:05:15;;;;;;;;;;;17.20;74.80;;;;;;4921262;29;19947;-83
2023/05/15 11:07:40;;;;;;;;;;;17.20;75.00;;;;;;4923611;29;19939;-91
2023/05/15 11:10:32;;;;;;;;;;;17.30;74.90;;;;;;4921435;29;19907;-91
2023/05/15 11:12:58;;;;;;;;;;;17.50;74.90;;;;;;4901732;29;20434;-91
2023/05/15 11:15:24;;;;;;;;;;;17.80;74.20;;;;;;4919219;29;19966;-89
2023/05/15 11:18:05;;;;;;;;;;;17.90;73.50;;;;;;4920725;29;19907;-91
2023/05/15 11:20:38;;;;;;;;;;;18.10;73.20;;;;;;4902094;29;19947;-92
2023/05/15 11:23:03;;;;;;;;;;;18.20;72.30;;;;;;4902441;29;20374;-92
2023/05/15 11:25:30;;;;;;;;;;;18.10;72.50;;;;;;4914935;29;19933;-93
2023/05/15 11:27:56;;;;;;;;;;;18.10;73.10;;;;;;4905636;29;19918;-91
2023/05/15 11:30:33;;;;;;;;;;;18.20;72.70;;;;;;4922384;29;19907;-92
2023/05/15 11:32:59;;;;;;;;;;;18.10;72.60;;;;;;4906408;29;20271;-93
2023/05/15 11:35:31;;;;;;;;;;;18.20;73.10;;;;;;4906022;29;19915;-92
2023/05/15 11:38:09;;;;;;;;;;;17.90;72.50;;;;;;4921602;29;20829;-93
2023/05/15 11:40:45;;;;;;;;;;;17.70;73.50;;;;;;4921037;29;19907;-91
2023/05/15 11:43:19;;;;;;;;;;;17.70;73.30;;;;;;4921987;29;19914;-88
2023/05/15 11:46:04;;;;;;;;;;;17.70;73.40;;;;;;4919947;29;19911;-88
2023/05/15 11:48:31;;;;;;;;;;;17.70;73.50;;;;;;4920206;29;19930;-86
2023/05/15 11:50:56;;;;;;;;;;;17.50;73.50;;;;;;4900428;29;20002;-89
2023/05/15 11:53:23;;;;;;;;;;;17.40;73.50;;;;;;4892895;29;19986;-89
2023/05/15 11:55:50;;;;;;;;;;;17.30;73.70;;;;;;4915921;29;20002;-89
2023/05/15 11:58:16;;;;;;;;;;;17.20;73.80;;;;;;4911779;29;19907;-89
2023/05/15 12:00:43;;;;;;;;;;;17.30;73.60;;;;;;4919808;29;20040;-89
2023/05/15 12:03:16;;;;;;;;;;;17.50;73.60;;;;;;4919207;29;20378;-89
2023/05/15 12:05:42;;;;;;;;;;;17.50;73.40;;;;;;4902070;29;19950;-88
2023/05/15 12:08:11;;;;;;;;;;;17.50;73.10;;;;;;4919567;29;19910;-88
2023/05/15 12:10:41;;;;;;;;;;;17.60;72.80;;;;;;4918746;29;19907;-88
2023/05/15 12:13:07;;;;;;;;;;;17.60;72.60;;;;;;4902922;29;20002;-88
2023/05/15 12:15:35;;;;;;;;;;;17.50;72.30;;;;;;4919066;29;19973;-89
2023/05/15 12:18:02;;;;;;;;;;;17.50;72.30;;;;;;4902479;29;19911;-88
2023/05/15 12:20:27;;;;;;;;;;;17.40;72.60;;;;;;4899034;29;19930;-88
2023/05/15 12:22:53;;;;;;;;;;;17.30;72.60;;;;;;4900748;29;19911;-89
2023/05/15 12:25:18;;;;;;;;;;;17.40;72.50;;;;;;4908374;29;19907;-88
2023/05/15 12:27:44;;;;;;;;;;;17.30;72.50;;;;;;4919824;29;19926;-88
2023/05/15 12:30:10;;;;;;;;;;;17.20;72.60;;;;;;4902483;29;19993;-89
2023/05/15 12:32:36;;;;;;;;;;;17.10;72.70;;;;;;4918299;29;20378;-88
2023/05/15 12:35:02;;;;;;;;;;;17.10;72.50;;;;;;4903103;29;19918;-88
2023/05/15 12:37:30;;;;;;;;;;;17.10;72.70;;;;;;4919365;29;19911;-88
2023/05/15 12:40:00;;;;;;;;;;;17.20;72.50;;;;;;4903338;29;20544;-87
2023/05/15 12:42:25;;;;;;;;;;;17.40;72.00;;;;;;4892924;29;19908;-87
2023/05/15 12:44:52;;;;;;;;;;;17.50;71.90;;;;;;4901986;29;19922;-88
2023/05/15 12:47:21;;;;;;;;;;;17.50;71.60;;;;;;4918492;29;19914;-88
2023/05/15 12:49:46;;;;;;;;;;;17.40;71.50;;;;;;4919986;29;20335;-88
2023/05/15 12:52:13;;;;;;;;;;;17.30;71.30;;;;;;4919084;29;19907;-87
2023/05/15 12:54:42;;;;;;;;;;;17.50;71.10;;;;;;4913620;29;19915;-87
2023/05/15 12:57:08;;;;;;;;;;;17.80;70.60;;;;;;4892221;29;19939;-87
2023/05/15 12:59:34;;;;;;;;;;;17.70;70.30;;;;;;4919293;29;20366;-87
2023/05/15 13:02:00;;;;;;;;;;;17.70;70.20;;;;;;4913542;29;19975;-87
2023/05/15 13:04:25;;;;;;;;;;;17.60;70.40;;;;;;4905005;29;19918;-86
2023/05/15 13:06:51;;;;;;;;;;;17.50;70.70;;;;;;4899231;29;19911;-87
2023/05/15 13:09:21;;;;;;;;;;;17.50;70.40;;;;;;4905819;29;20381;-87
2023/05/15 13:11:47;;;;;;;;;;;17.40;70.70;;;;;;4923035;29;19913;-88
2023/05/15 13:14:16;;;;;;;;;;;17.30;70.80;;;;;;4922804;29;19914;-87
2023/05/15 13:16:42;;;;;;;;;;;17.30;70.60;;;;;;4902923;29;20289;-88
2023/05/15 13:19:08;;;;;;;;;;;17.40;70.60;;;;;;4902125;29;19927;-87
2023/05/15 13:21:34;;;;;;;;;;;17.50;70.30;;;;;;4903526;29;19911;-87
2023/05/15 13:24:00;;;;;;;;;;;17.50;70.50;;;;;;4906264;29;19918;-87
2023/05/15 13:26:25;;;;;;;;;;;17.60;70.20;;;;;;4905745;29;19978;-87
2023/05/15 13:28:50;;;;;;;;;;;17.60;69.70;;;;;;4922236;29;19908;-87
2023/05/15 13:31:16;;;;;;;;;;;17.60;69.60;;;;;;4917255;29;19919;-87
2023/05/15 13:33:42;;;;;;;;;;;17.50;69.40;;;;;;4919042;29;19911;-86
2023/05/15 13:36:07;;;;;;;;;;;17.40;69.30;;;;;;4920988;29;19911;-87
2023/05/15 13:38:33;;;;;;;;;;;17.30;69.60;;;;;;4921232;29;20263;-86
2023/05/15 13:40:59;;;;;;;;;;;17.20;69.90;;;;;;4921759;29;20267;-87
2023/05/15 13:43:24;;;;;;;;;;;17.20;69.80;;;;;;4922217;29;20309;-88
2023/05/15 13:45:50;;;;;;;;;;;17.10;69.10;;;;;;4921664;29;20442;-88
2023/05/15 13:48:15;;;;;;;;;;;17.10;69.90;;;;;;4921694;29;19918;-86
2023/05/15 13:50:42;;;;;;;;;;;17.00;69.50;;;;;;4921353;29;19918;-87
2023/05/15 13:53:07;;;;;;;;;;;17.00;69.60;;;;;;4921008;29;19946;-86
2023/05/15 13:55:33;;;;;;;;;;;17.00;69.60;;;;;;4907916;29;19911;-87
2023/05/15 13:57:59;;;;;;;;;;;17.00;69.60;;;;;;4921725;29;20519;-86
2023/05/15 14:00:24;;;;;;;;;;;16.90;69.60;;;;;;4904431;29;19911;-87
2023/05/15 14:02:50;;;;;;;;;;;16.90;69.60;;;;;;4899476;29;19918;-86
2023/05/15 14:05:16;;;;;;;;;;;16.90;69.50;;;;;;4902356;29;19915;-87
2023/05/15 14:07:41;;;;;;;;;;;17.20;68.50;;;;;;4920511;29;19966;-87
2023/05/15 14:10:07;;;;;;;;;;;17.50;68.40;;;;;;4906132;29;20010;-87
2023/05/15 14:12:33;;;;;;;;;;;17.80;67.70;;;;;;4922311;29;19989;-87
2023/05/15 14:14:59;;;;;;;;;;;18.10;67.20;;;;;;4921849;29;19983;-88
2023/05/15 14:17:25;;;;;;;;;;;18.30;66.50;;;;;;4921285;29;19914;-86
2023/05/15 14:19:50;;;;;;;;;;;18.50;66.10;;;;;;4916225;29;19916;-86
2023/05/15 14:22:16;;;;;;;;;;;18.60;65.10;;;;;;4912954;29;19930;-86
2023/05/15 14:24:43;;;;;;;;;;;18.60;65.00;;;;;;4902914;29;19918;-86
2023/05/15 14:27:09;;;;;;;;;;;18.30;65.20;;;;;;4903753;29;19911;-86
2023/05/15 14:29:34;;;;;;;;;;;18.10;66.20;;;;;;4904797;29;19980;-86
2023/05/15 14:32:00;;;;;;;;;;;17.80;66.20;;;;;;4904419;29;19919;-87
2023/05/15 14:34:25;;;;;;;;;;;17.80;66.60;;;;;;4903549;29;19915;-86
2023/05/15 14:36:51;;;;;;;;;;;17.80;66.10;;;;;;4915125;29;19932;-86
2023/05/15 14:39:17;;;;;;;;;;;18.00;66.10;;;;;;4901845;29;19907;-87
2023/05/15 14:41:43;;;;;;;;;;;18.10;66.40;;;;;;4912349;29;19915;-87
2023/05/15 14:44:09;;;;;;;;;;;18.10;65.60;;;;;;4904126;29;19935;-86
2023/05/15 14:46:37;;;;;;;;;;;18.10;66.00;;;;;;4920701;29;19919;-85
2023/05/15 14:49:03;;;;;;;;;;;17.90;66.00;;;;;;4904084;29;19971;-85
2023/05/15 14:51:29;;;;;;;;;;;17.80;65.50;;;;;;4921348;29;19914;-85
2023/05/15 14:53:55;;;;;;;;;;;17.90;65.50;;;;;;4902576;29;19915;-84
2023/05/15 14:56:21;;;;;;;;;;;18.10;65.20;;;;;;4921727;29;19907;-85
2023/05/15 14:58:47;;;;;;;;;;;18.00;65.50;;;;;;4919575;29;19915;-85
2023/05/15 15:01:13;;;;;;;;;;;18.00;64.90;;;;;;4920857;29;20424;-84
2023/05/15 15:03:39;;;;;;;;;;;18.10;64.50;;;;;;4920274;29;19997;-85
2023/05/15 15:06:04;;;;;;;;;;;18.10;64.60;;;;;;4920396;29;19911;-86
2023/05/15 15:08:30;;;;;;;;;;;18.00;63.80;;;;;;4903163;29;19957;-85
2023/05/15 15:10:56;;;;;;;;;;;17.90;63.60;;;;;;4920544;29;19910;-85
2023/05/15 15:13:22;;;;;;;;;;;17.80;64.10;;;;;;4919811;29;19911;-85
2023/05/15 15:15:48;;;;;;;;;;;17.80;64.10;;;;;;4919691;29;20506;-85
2023/05/15 15:18:13;;;;;;;;;;;17.70;63.50;;;;;;4919489;29;19971;-86
2023/05/15 15:20:40;;;;;;;;;;;17.60;63.80;;;;;;4920151;29;20270;-85
2023/05/15 15:23:06;;;;;;;;;;;17.60;63.90;;;;;;4903221;29;19915;-86
2023/05/15 15:25:32;;;;;;;;;;;17.70;64.20;;;;;;4920080;29;20029;-86
2023/05/15 15:27:57;;;;;;;;;;;17.90;63.60;;;;;;4918557;29;19950;-85
2023/05/15 15:30:23;;;;;;;;;;;18.00;62.30;;;;;;4918959;29;19915;-85
2023/05/15 15:32:48;;;;;;;;;;;18.10;62.60;;;;;;4919326;29;19967;-85
2023/05/15 15:35:14;;;;;;;;;;;18.20;62.20;;;;;;4899602;29;19975;-85
2023/05/15 15:37:39;;;;;;;;;;;18.20;62.10;;;;;;4903168;29;19946;-84
2023/05/15 15:40:06;;;;;;;;;;;18.30;60.80;;;;;;4919938;29;20405;-84
2023/05/15 15:42:32;;;;;;;;;;;18.30;60.00;;;;;;4920704;29;19911;-86
2023/05/15 15:44:58;;;;;;;;;;;18.20;60.10;;;;;;4915932;29;19915;-85
2023/05/15 15:47:23;;;;;;;;;;;18.00;59.80;;;;;;4917050;29;20346;-86
2023/05/15 15:49:49;;;;;;;;;;;18.00;60.10;;;;;;4917340;29;19911;-85
2023/05/15 15:52:16;;;;;;;;;;;18.10;60.40;;;;;;4919391;29;20002;-86
2023/05/15 15:54:45;;;;;;;;;;;18.20;59.80;;;;;;4915348;29;19954;-87
2023/05/15 15:57:17;;;;;;;;;;;18.20;59.30;;;;;;4902523;29;19911;-87
2023/05/15 15:59:43;;;;;;;;;;;18.20;58.40;;;;;;4903201;29;19937;-88
2023/05/15 16:02:09;;;;;;;;;;;18.10;58.30;;;;;;4906762;29;19962;-89
2023/05/15 16:04:36;;;;;;;;;;;18.00;58.40;;;;;;4920654;29;19922;-91
2023/05/15 16:07:02;;;;;;;;;;;18.20;58.10;;;;;;4904329;29;19907;-86
2023/05/15 16:09:27;;;;;;;;;;;18.30;57.00;;;;;;4920623;29;19961;-91
2023/05/15 16:11:53;;;;;;;;;;;18.20;57.70;;;;;;4901207;29;19974;-86
2023/05/15 16:14:19;;;;;;;;;;;18.10;57.00;;;;;;4898337;29;20378;-88
2023/05/15 16:16:45;;;;;;;;;;;18.00;57.70;;;;;;4916394;29;20013;-92
2023/05/15 16:19:11;;;;;;;;;;;18.00;58.60;;;;;;4901874;29;19957;-86
2023/05/15 16:21:37;;;;;;;;;;;17.90;58.00;;;;;;4900808;29;19907;-81
2023/05/15 16:24:03;;;;;;;;;;;18.00;57.50;;;;;;4902199;29;19966;-88
2023/05/15 16:26:28;;;;;;;;;;;18.00;59.00;;;;;;4919792;29;19907;-86
2023/05/15 16:28:54;;;;;;;;;;;17.80;57.40;;;;;;4917402;29;20322;-90
2023/05/15 16:31:19;;;;;;;;;;;17.70;57.70;;;;;;4899412;29;19958;-92
2023/05/15 16:33:45;;;;;;;;;;;17.80;57.40;;;;;;4904915;29;19911;-91
2023/05/15 16:36:11;;;;;;;;;;;17.90;56.80;;;;;;4919941;29;19935;-93
2023/05/15 16:38:36;;;;;;;;;;;17.90;56.70;;;;;;4901552;29;19915;-93
2023/05/15 16:41:02;;;;;;;;;;;17.90;57.10;;;;;;4902783;29;19974;-93
2023/05/15 16:43:28;;;;;;;;;;;17.80;56.50;;;;;;4907592;29;19987;-93
2023/05/15 16:45:53;;;;;;;;;;;17.70;56.20;;;;;;4905842;29;19915;-91
2023/05/15 16:48:19;;;;;;;;;;;17.60;56.20;;;;;;4925832;29;19907;-92
2023/05/15 16:50:44;;;;;;;;;;;17.70;56.40;;;;;;4915558;29;19911;-91
2023/05/15 16:53:10;;;;;;;;;;;17.70;56.60;;;;;;4923952;29;19911;-90
2023/05/15 16:55:36;;;;;;;;;;;17.60;56.70;;;;;;4912658;29;20017;-91
2023/05/15 16:58:02;;;;;;;;;;;17.60;56.90;;;;;;4927886;29;19915;-90
2023/05/15 17:00:27;;;;;;;;;;;17.60;57.20;;;;;;4906394;29;19950;-90
2023/05/15 17:02:53;;;;;;;;;;;17.60;56.60;;;;;;4909322;29;19930;-89
2023/05/15 17:05:19;;;;;;;;;;;17.60;55.80;;;;;;4922803;29;19938;-90
2023/05/15 17:07:45;;;;;;;;;;;17.60;55.80;;;;;;4907539;29;19926;-90
2023/05/15 17:10:11;;;;;;;;;;;17.50;55.40;;;;;;4908510;29;19919;-90
2023/05/15 17:12:37;;;;;;;;;;;17.40;55.40;;;;;;4907399;29;19911;-92
2023/05/15 17:15:03;;;;;;;;;;;17.40;55.60;;;;;;4906786;29;19911;-89
2023/05/15 17:17:28;;;;;;;;;;;17.30;55.20;;;;;;4922801;29;19956;-84
2023/05/15 17:19:54;;;;;;;;;;;17.30;55.50;;;;;;4903159;29;19910;-83
2023/05/15 17:22:25;;;;;;;;;;;17.30;55.20;;;;;;4902043;29;19908;-85
2023/05/15 17:24:51;;;;;;;;;;;17.30;55.20;;;;;;4916851;29;19970;-84
2023/05/15 17:27:17;;;;;;;;;;;17.20;55.30;;;;;;4918873;29;19918;-84
2023/05/15 17:29:43;;;;;;;;;;;17.20;55.70;;;;;;4906228;29;19919;-91
2023/05/15 17:32:09;;;;;;;;;;;17.20;55.90;;;;;;4907115;29;19923;-90
2023/05/15 17:34:35;;;;;;;;;;;17.10;55.90;;;;;;4890876;29;19922;-88
2023/05/15 17:37:01;;;;;;;;;;;17.00;55.90;;;;;;4906891;29;19927;-87
2023/05/15 17:39:29;;;;;;;;;;;16.90;55.90;;;;;;4917575;29;20370;-88
2023/05/15 17:41:54;;;;;;;;;;;16.80;56.00;;;;;;4913612;29;20277;-84
2023/05/15 17:44:20;;;;;;;;;;;16.80;55.60;;;;;;4907515;29;19918;-82
2023/05/15 17:46:46;;;;;;;;;;;16.70;55.50;;;;;;4923385;29;19907;-88
2023/05/15 17:49:11;;;;;;;;;;;16.70;55.90;;;;;;4924036;29;19918;-86
2023/05/15 17:51:37;;;;;;;;;;;16.70;55.70;;;;;;4914721;29;19907;-90
2023/05/15 17:54:03;;;;;;;;;;;16.60;56.10;;;;;;4905187;29;19978;-89
2023/05/15 17:56:28;;;;;;;;;;;16.60;56.10;;;;;;4905571;29;19907;-88
2023/05/15 17:58:54;;;;;;;;;;;16.60;56.30;;;;;;4906370;29;19970;-91
2023/05/15 18:01:20;;;;;;;;;;;16.60;56.60;;;;;;4905942;29;19978;-88
2023/05/15 18:03:46;;;;;;;;;;;16.60;56.40;;;;;;4907102;29;19958;-90
2023/05/15 18:06:12;;;;;;;;;;;16.60;56.30;;;;;;4907221;29;19911;-87
2023/05/15 18:08:43;;;;;;;;;;;16.60;56.00;;;;;;4922643;29;19907;-82
2023/05/15 18:11:09;;;;;;;;;;;16.60;56.00;;;;;;4923009;29;19962;-89
2023/05/15 18:13:34;;;;;;;;;;;16.70;55.90;;;;;;4921597;29;20015;-86
2023/05/15 18:16:00;;;;;;;;;;;16.70;56.30;;;;;;4905501;29;19914;-87
2023/05/15 18:18:25;;;;;;;;;;;16.80;56.60;;;;;;4922732;29;20305;-83
2023/05/15 18:20:51;;;;;;;;;;;16.80;56.30;;;;;;4884968;29;19911;-87
2023/05/15 18:23:18;;;;;;;;;;;16.80;55.90;;;;;;4914829;29;19970;-86
2023/05/15 18:25:44;;;;;;;;;;;16.70;56.00;;;;;;4904025;29;19918;-87
2023/05/15 18:28:10;;;;;;;;;;;16.50;55.80;;;;;;4921045;29;19910;-83
2023/05/15 18:30:35;;;;;;;;;;;16.30;56.30;;;;;;4920581;29;19918;-85
2023/05/15 18:33:01;;;;;;;;;;;16.30;56.70;;;;;;4921088;29;19911;-84
2023/05/15 18:35:26;;;;;;;;;;;16.20;56.90;;;;;;4921348;29;19962;-84
2023/05/15 18:37:52;;;;;;;;;;;16.20;57.20;;;;;;4904337;29;19991;-89
2023/05/15 18:40:17;;;;;;;;;;;16.20;57.70;;;;;;4921589;29;19914;-84
2023/05/15 18:42:43;;;;;;;;;;;16.10;57.90;;;;;;4918515;29;19965;-88